Time;durP1;ratioP1;P1;durP2;ratioP2;P2;SDS_P1;SDS_P2;PMS_P1;PMS_P2;Temp;Humidity;BMP_temperature;BMP_pressure;BME280_temperature;BME280_humidity;BME280_pressure;Samples;Min_cycle;Max_cycle;Signal;HPM_P1;HPM_P2
2022/05/19 00:01:26;;;;;;;7.15;6.78;;;;;;;21.24;61.34;101969.00;4994319;28;20029;-66
2022/05/19 00:03:51;;;;;;;7.38;7.07;;;;;;;21.24;61.07;101963.53;4994362;28;20105;-66
2022/05/19 00:06:17;;;;;;;7.40;7.05;;;;;;;21.27;61.15;101963.19;4994312;28;20037;-65
2022/05/19 00:08:42;;;;;;;7.40;7.10;;;;;;;21.27;59.95;101971.41;4993880;28;20034;-66
2022/05/19 00:11:12;;;;;;;7.38;7.07;;;;;;;21.31;60.32;101964.56;4994291;28;20482;-66
2022/05/19 00:13:39;;;;;;;7.13;6.82;;;;;;;21.30;59.95;101962.88;4996627;28;20042;-64
2022/05/19 00:16:05;;;;;;;7.50;7.10;;;;;;;21.32;59.42;101966.28;4994359;28;20048;-66
2022/05/19 00:18:32;;;;;;;7.53;7.22;;;;;;;21.35;59.33;101964.28;4994138;28;20030;-66
2022/05/19 00:20:57;;;;;;;7.43;7.13;;;;;;;21.36;59.23;101960.53;4993932;28;20073;-66
2022/05/19 00:23:23;;;;;;;7.15;6.85;;;;;;;21.35;59.54;101961.53;4993971;28;20470;-66
2022/05/19 00:25:48;;;;;;;7.22;6.93;;;;;;;21.37;59.07;101962.22;4994060;28;20374;-66
2022/05/19 00:28:14;;;;;;;7.00;6.70;;;;;;;21.37;58.88;101962.22;4994149;28;20045;-66
2022/05/19 00:30:41;;;;;;;6.90;6.60;;;;;;;21.39;59.30;101965.66;4996401;28;20038;-66
2022/05/19 00:33:08;;;;;;;7.72;7.43;;;;;;;21.40;59.69;101961.91;4994003;28;20022;-66
2022/05/19 00:35:34;;;;;;;6.95;6.65;;;;;;;21.39;58.21;101954.72;4993915;28;20026;-66
2022/05/19 00:37:59;;;;;;;7.40;7.00;;;;;;;21.40;59.05;101953.69;4993895;28;20030;-66
2022/05/19 00:40:25;;;;;;;7.75;7.45;;;;;;;21.41;58.58;101949.94;5007293;28;20034;-66
2022/05/19 00:42:51;;;;;;;7.47;7.18;;;;;;;21.42;58.34;101943.44;4993989;28;20381;-66
2022/05/19 00:45:25;;;;;;;7.20;6.80;;;;;;;21.41;58.12;101947.19;4994915;28;20068;-66
2022/05/19 00:48:00;;;;;;;6.85;6.55;;;;;;;21.41;57.32;101942.56;4993872;28;20101;-66
2022/05/19 00:50:45;;;;;;;7.10;6.80;;;;;;;21.42;57.84;101948.91;4993828;28;20089;-66
2022/05/19 00:53:21;;;;;;;7.10;6.80;;;;;;;21.42;57.35;101937.97;4993837;28;20018;-66
2022/05/19 00:55:49;;;;;;;6.97;6.68;;;;;;;21.42;57.63;101943.44;4993775;28;20022;-66
2022/05/19 00:58:21;;;;;;;7.47;7.15;;;;;;;21.44;57.89;101952.31;4993792;28;20041;-66
2022/05/19 01:00:46;;;;;;;7.10;6.80;;;;;;;21.44;58.00;101944.13;4996246;28;20049;-66
2022/05/19 01:03:15;;;;;;;6.90;6.60;;;;;;;21.46;57.29;101939.34;4993705;28;20034;-66
2022/05/19 01:05:55;;;;;;;7.50;7.20;;;;;;;21.43;57.93;101946.00;4993649;28;20350;-66
2022/05/19 01:08:36;;;;;;;7.43;7.13;;;;;;;21.44;57.98;101944.13;4993601;28;20042;-66
2022/05/19 01:11:05;;;;;;;7.07;6.78;;;;;;;21.44;57.91;101941.38;4993673;28;20026;-66
2022/05/19 01:13:31;;;;;;;7.65;7.35;;;;;;;21.44;58.24;101938.66;4993465;28;20054;-66
2022/05/19 01:16:00;;;;;;;7.20;6.90;;;;;;;21.44;57.23;101935.91;4994432;28;20046;-63
2022/05/19 01:18:28;;;;;;;7.13;6.82;;;;;;;21.44;57.95;101930.44;4994013;28;20481;-66
2022/05/19 01:20:55;;;;;;;7.40;7.07;;;;;;;21.45;57.05;101932.16;4994257;28;20449;-66
2022/05/19 01:23:26;;;;;;;7.45;7.15;;;;;;;21.42;57.72;101916.94;4999024;28;20400;-66
2022/05/19 01:26:04;;;;;;;7.45;7.15;;;;;;;21.46;57.30;101928.41;4997343;28;20022;-66
2022/05/19 01:28:30;;;;;;;7.55;7.25;;;;;;;21.44;57.48;101922.22;4997127;28;20428;-66
2022/05/19 01:30:55;;;;;;;7.40;7.00;;;;;;;21.44;58.15;101919.50;4998622;28;20023;-66
2022/05/19 01:33:21;;;;;;;7.80;7.50;;;;;;;21.43;57.01;101921.38;4997004;28;20026;-66
2022/05/19 01:35:47;;;;;;;7.28;6.97;;;;;;;21.45;57.05;101922.06;4997008;28;20053;-66
2022/05/19 01:38:27;;;;;;;8.00;7.70;;;;;;;21.44;57.33;101911.28;4997077;28;20026;-66
2022/05/19 01:41:01;;;;;;;7.30;7.00;;;;;;;21.43;57.90;101913.16;4996987;28;20022;-66
2022/05/19 01:43:56;;;;;;;;;;;;;;;21.43;56.91;101917.78;4997127;28;20037;-66
2022/05/19 01:46:31;;;;;;;7.15;6.80;;;;;;;21.46;58.12;101911.97;5037626;28;19909;-66
2022/05/19 01:49:15;;;;;;;7.40;7.10;;;;;;;21.45;57.33;101908.38;5033958;28;20386;-66
2022/05/19 01:52:07;;;;;;;7.75;7.45;;;;;;;21.46;58.37;101909.25;5033916;28;20030;-66
2022/05/19 01:55:08;;;;;;;7.65;7.35;;;;;;;21.44;57.67;101908.56;5033813;28;20068;-66
2022/05/19 01:57:39;;;;;;;7.20;6.90;;;;;;;21.45;57.44;101900.19;4994125;28;20264;-66
2022/05/19 02:00:18;;;;;;;7.68;7.38;;;;;;;21.44;57.40;101909.41;4995047;28;20042;-66
2022/05/19 02:03:02;;;;;;;7.15;6.85;;;;;;;21.44;57.83;101903.09;4996857;28;20042;-65
2022/05/19 02:05:46;;;;;;;7.10;6.80;;;;;;;21.44;57.75;101903.09;4997749;28;20386;-66
2022/05/19 02:08:30;;;;;;;7.15;6.85;;;;;;;21.45;58.35;101902.06;4994186;28;20042;-66
2022/05/19 02:10:59;;;;;;;7.50;7.20;;;;;;;21.46;58.48;101901.03;4994217;28;20030;-66
2022/05/19 02:13:28;;;;;;;7.30;7.00;;;;;;;21.44;58.57;101895.72;4994936;28;20547;-66
2022/05/19 02:15:55;;;;;;;7.55;7.25;;;;;;;21.45;58.32;101893.84;4994058;28;20121;-66
2022/05/19 02:18:24;;;;;;;6.80;6.50;;;;;;;21.44;58.19;101894.88;4993968;28;20030;-66
2022/05/19 02:20:51;;;;;;;7.13;6.82;;;;;;;21.44;57.07;101893.00;4993886;28;20050;-66
2022/05/19 02:23:17;;;;;;;7.30;7.00;;;;;;;21.44;57.90;101903.94;4952644;28;20040;-66
2022/05/19 02:25:45;;;;;;;7.30;7.00;;;;;;;21.46;58.15;101907.38;4935963;29;20558;-66
2022/05/19 02:28:17;;;;;;;7.00;6.70;;;;;;;21.45;57.90;101899.31;4936770;29;20043;-66
2022/05/19 02:30:43;;;;;;;7.03;6.72;;;;;;;21.44;57.68;101903.09;4935992;29;20043;-66
2022/05/19 02:33:12;;;;;;;7.13;6.82;;;;;;;21.46;58.44;101898.31;4935561;29;20383;-66
2022/05/19 02:35:37;;;;;;;7.18;6.88;;;;;;;21.46;58.07;101909.25;4991984;28;20172;-66
2022/05/19 02:38:04;;;;;;;7.03;6.72;;;;;;;21.46;58.22;101898.31;4995889;28;20058;-66
2022/05/19 02:40:31;;;;;;;7.43;7.10;;;;;;;21.45;57.64;101899.31;4997061;28;20173;-66
2022/05/19 02:42:57;;;;;;;7.00;6.70;;;;;;;21.46;58.27;101884.63;4995831;28;20034;-66
2022/05/19 02:45:23;;;;;;;7.55;7.25;;;;;;;21.45;57.71;101883.75;5006364;28;20377;-66
2022/05/19 02:47:49;;;;;;;7.40;7.10;;;;;;;21.46;58.38;101884.63;4995722;28;20084;-66
2022/05/19 02:50:15;;;;;;;7.57;7.28;;;;;;;21.44;57.89;101884.78;4995647;28;20456;-66
2022/05/19 02:52:41;;;;;;;7.40;7.10;;;;;;;21.46;58.30;101879.16;5010904;28;20018;-66
2022/05/19 02:55:07;;;;;;;7.22;6.93;;;;;;;21.45;58.54;101878.28;4999824;28;20060;-66
2022/05/19 02:57:32;;;;;;;7.32;7.03;;;;;;;21.46;58.62;101880.00;4995448;28;20450;-66
2022/05/19 02:59:59;;;;;;;7.30;7.00;;;;;;;21.47;57.88;101875.38;4995492;28;20041;-66
2022/05/19 03:02:25;;;;;;;7.20;6.90;;;;;;;21.44;57.34;101881.19;4995198;28;20450;-66
2022/05/19 03:04:50;;;;;;;7.63;7.32;;;;;;;21.47;58.24;101883.59;4995514;28;20058;-66
2022/05/19 03:07:15;;;;;;;6.90;6.60;;;;;;;21.46;58.39;101879.16;4995214;28;20429;-66
2022/05/19 03:09:42;;;;;;;7.43;7.13;;;;;;;21.46;58.17;101884.63;4995721;28;20026;-66
2022/05/19 03:12:11;;;;;;;7.35;7.05;;;;;;;21.47;58.21;101872.66;4995471;28;20042;-66
2022/05/19 03:14:36;;;;;;;7.20;6.90;;;;;;;21.48;58.56;101880.69;4995160;28;20041;-66
2022/05/19 03:17:05;;;;;;;7.30;7.00;;;;;;;21.48;58.99;101877.94;4995155;28;20030;-66
2022/05/19 03:19:31;;;;;;;7.13;6.82;;;;;;;21.46;59.16;101884.63;4995238;28;20410;-66
2022/05/19 03:21:56;;;;;;;7.30;7.00;;;;;;;21.48;59.31;101871.63;4995960;28;20053;-66
2022/05/19 03:24:21;;;;;;;7.28;6.97;;;;;;;21.50;59.73;101875.03;4994804;28;20022;-66
2022/05/19 03:26:47;;;;;;;6.93;6.63;;;;;;;21.50;59.18;101880.50;4994993;28;20026;-66
2022/05/19 03:29:12;;;;;;;7.50;7.20;;;;;;;21.50;59.94;101886.00;4996133;28;20057;-65
2022/05/19 03:31:38;;;;;;;7.47;7.18;;;;;;;21.48;58.93;101886.16;4996037;28;20030;-66
2022/05/19 03:34:04;;;;;;;7.40;7.10;;;;;;;21.49;59.00;101889.75;4994963;28;20029;-66
2022/05/19 03:36:29;;;;;;;7.55;7.25;;;;;;;21.49;59.95;101884.28;4995252;28;20026;-66
2022/05/19 03:38:55;;;;;;;7.50;7.20;;;;;;;21.47;59.64;101881.72;4994853;28;20099;-66
2022/05/19 03:41:21;;;;;;;7.00;6.70;;;;;;;21.49;59.99;101885.13;4994920;28;20121;-66
2022/05/19 03:43:47;;;;;;;7.47;7.18;;;;;;;21.49;59.82;101876.94;4993798;28;20033;-66
2022/05/19 03:46:12;;;;;;;7.10;6.80;;;;;;;21.48;60.48;101882.56;4994623;28;20026;-66
2022/05/19 03:48:38;;;;;;;7.30;7.00;;;;;;;21.48;59.89;101880.69;4994487;28;20500;-66
2022/05/19 03:51:09;;;;;;;7.25;6.95;;;;;;;21.50;60.30;101886.00;4994637;28;20030;-66
2022/05/19 03:53:34;;;;;;;7.10;6.80;;;;;;;21.49;60.09;101885.13;4995787;28;20688;-66
2022/05/19 03:56:00;;;;;;;7.47;7.18;;;;;;;21.50;60.12;101884.13;4994565;28;20022;-66
2022/05/19 03:58:25;;;;;;;7.47;7.18;;;;;;;21.49;60.38;101884.28;4994204;28;20022;-66
2022/05/19 04:00:51;;;;;;;7.20;6.90;;;;;;;21.51;60.41;101890.47;4994401;28;20077;-66
2022/05/19 04:03:16;;;;;;;0.10;0.10;;;;;;;22.18;59.31;101886.66;4994257;28;20466;-66
2022/05/19 04:05:42;;;;;;;0.35;0.20;;;;;;;22.55;58.90;101877.00;4994268;28;20065;-66
2022/05/19 04:08:07;;;;;;;0.17;0.17;;;;;;;22.87;58.25;101883.47;4998507;28;20030;-66
2022/05/19 04:10:32;;;;;;;0.20;0.20;;;;;;;23.05;57.46;101871.22;4994135;28;20034;-66
2022/05/19 04:12:59;;;;;;;8.15;0.73;;;;;;;23.28;57.12;101875.91;4994246;28;20041;-67
2022/05/19 04:15:25;;;;;;;0.20;0.20;;;;;;;23.41;57.50;101862.47;4994156;28;20468;-66
2022/05/19 04:17:50;;;;;;;0.40;0.20;;;;;;;23.56;58.56;101863.41;4994186;28;20084;-66
2022/05/19 04:20:16;;;;;;;0.20;0.13;;;;;;;23.66;58.79;101861.28;4994049;28;20465;-66
2022/05/19 04:22:41;;;;;;;0.60;0.22;;;;;;;23.78;59.46;101859.00;4995980;28;20042;-66
2022/05/19 04:25:08;;;;;;;0.32;0.10;;;;;;;23.89;59.72;101857.72;4994076;28;20031;-66
2022/05/19 04:27:34;;;;;;;0.75;0.30;;;;;;;23.95;59.66;101865.22;4993901;28;20026;-66
2022/05/19 04:30:00;;;;;;;0.28;0.20;;;;;;;24.03;59.88;101856.91;4994114;28;20030;-66
2022/05/19 04:32:25;;;;;;;0.20;0.20;;;;;;;24.14;59.67;101870.19;4993865;28;20018;-66
2022/05/19 04:35:03;;;;;;;0.30;0.10;;;;;;;24.24;59.79;101865.31;4993225;28;20354;-64
2022/05/19 04:37:31;;;;;;;0.20;0.20;;;;;;;24.31;61.18;101859.94;4993782;28;20030;-66
2022/05/19 04:40:00;;;;;;;0.00;0.00;;;;;;;24.38;61.49;101855.41;4994040;28;20368;-66
2022/05/19 04:42:26;;;;;;;0.10;0.10;;;;;;;24.46;60.77;101862.72;4993578;28;20026;-66
2022/05/19 04:44:53;;;;;;;0.10;0.10;;;;;;;24.50;61.91;101858.53;4994004;28;20034;-66
2022/05/19 04:47:19;;;;;;;0.20;0.10;;;;;;;24.54;62.08;101862.66;4993814;28;20026;-66
2022/05/19 04:49:44;;;;;;;0.30;0.30;;;;;;;24.58;61.64;101855.72;4997806;28;20109;-66
2022/05/19 04:52:09;;;;;;;0.30;0.15;;;;;;;24.24;61.53;101858.97;4997777;28;20058;-66
2022/05/19 04:54:35;;;;;;;0.28;0.10;;;;;;;23.73;60.94;101855.09;4994097;28;20026;-66
2022/05/19 04:57:00;;;;;;;0.50;0.10;;;;;;;23.36;59.53;101856.69;4997788;28;20018;-66
2022/05/19 04:59:25;;;;;;;0.30;0.22;;;;;;;23.25;57.32;101865.31;4997538;28;20026;-67
2022/05/19 05:01:51;;;;;;;0.55;0.00;;;;;;;23.07;55.26;101860.94;4997825;28;20419;-66
2022/05/19 05:04:16;;;;;;;0.20;0.17;;;;;;;22.96;53.52;101853.09;5000139;28;20529;-66
2022/05/19 05:06:42;;;;;;;0.30;0.10;;;;;;;22.77;53.46;101861.69;4997652;28;20515;-66
2022/05/19 05:09:08;;;;;;;0.30;0.20;;;;;;;22.72;53.72;101866.84;4997648;28;20465;-66
2022/05/19 05:11:34;;;;;;;0.10;0.10;;;;;;;22.53;51.78;101859.88;4997430;28;20026;-66
2022/05/19 05:13:59;;;;;;;0.20;0.20;;;;;;;22.43;51.93;101857.31;4997494;28;20073;-66
2022/05/19 05:16:25;;;;;;;0.38;0.20;;;;;;;22.36;51.50;101860.94;4998660;28;20142;-65
2022/05/19 05:18:50;;;;;;;0.50;0.25;;;;;;;22.41;52.26;101858.53;4997510;28;20125;-65
2022/05/19 05:21:15;;;;;;;0.13;0.13;;;;;;;22.25;51.45;101856.66;4997184;28;20054;-66
2022/05/19 05:23:41;;;;;;;0.10;0.10;;;;;;;22.31;51.72;101853.22;4997134;28;20035;-66
2022/05/19 05:26:07;;;;;;;0.30;0.30;;;;;;;22.38;51.02;101853.41;4997294;28;20045;-65
2022/05/19 05:28:33;;;;;;;0.28;0.20;;;;;;;22.31;52.44;101860.59;4996718;28;20029;-65
2022/05/19 05:30:59;;;;;;;0.35;0.20;;;;;;;22.40;51.75;101857.69;4997253;28;20042;-65
2022/05/19 05:33:25;;;;;;;0.10;0.10;;;;;;;22.33;51.43;101862.13;5002962;28;20034;-65
2022/05/19 05:35:50;;;;;;;0.05;0.05;;;;;;;22.41;51.73;101864.00;5000349;28;20053;-66
2022/05/19 05:38:17;;;;;;;0.10;0.10;;;;;;;22.39;51.87;101861.44;5016244;28;20054;-65
2022/05/19 05:40:43;;;;;;;0.20;0.20;;;;;;;22.35;51.78;101871.06;5016559;28;20377;-66
2022/05/19 05:43:12;;;;;;;0.30;0.10;;;;;;;22.30;52.04;101865.22;5016849;28;20029;-65
2022/05/19 05:45:39;;;;;;;0.28;0.20;;;;;;;22.36;51.36;101866.44;5016316;28;20477;-66
2022/05/19 05:48:05;;;;;;;0.10;0.10;;;;;;;22.42;52.34;101866.56;5016617;28;20022;-65
2022/05/19 05:50:31;;;;;;;0.20;0.20;;;;;;;22.37;52.36;101869.00;5016356;28;20038;-66
2022/05/19 05:52:56;;;;;;;0.55;0.13;;;;;;;22.38;52.91;101865.22;5016391;28;20029;-66
2022/05/19 05:55:21;;;;;;;0.10;0.10;;;;;;;22.33;52.43;101862.13;5016766;28;20470;-63
2022/05/19 05:57:47;;;;;;;0.10;0.10;;;;;;;22.39;52.54;101866.06;5016608;28;20031;-66
2022/05/19 06:00:13;;;;;;;0.10;0.10;;;;;;;22.41;51.39;101878.56;4997559;28;20425;-66
2022/05/19 06:02:39;;;;;;;0.45;0.20;;;;;;;22.43;51.13;101868.28;5015781;28;20481;-66
2022/05/19 06:05:05;;;;;;;0.20;0.10;;;;;;;22.43;52.01;101878.38;5009983;28;20061;-66
2022/05/19 06:07:31;;;;;;;0.30;0.20;;;;;;;22.31;52.39;101871.53;5004315;28;20084;-66
2022/05/19 06:09:57;;;;;;;0.10;0.10;;;;;;;22.29;52.42;101879.94;5017427;28;20037;-65
2022/05/19 06:12:25;;;;;;;0.10;0.10;;;;;;;22.45;53.34;101871.69;5019937;28;20084;-66
2022/05/19 06:14:53;;;;;;;0.15;0.10;;;;;;;22.34;51.74;101874.81;5010064;28;20034;-66
2022/05/19 06:17:19;;;;;;;0.20;0.10;;;;;;;22.40;52.71;101874.13;5005098;28;20070;-66
2022/05/19 06:19:44;;;;;;;0.10;0.00;;;;;;;22.41;51.76;101864.00;5012815;28;20619;-65
2022/05/19 06:22:09;;;;;;;0.95;0.20;;;;;;;22.47;50.73;101869.63;5007136;28;20046;-63
2022/05/19 06:24:35;;;;;;;0.17;0.00;;;;;;;22.39;51.11;101883.38;5011389;28;20488;-64
2022/05/19 06:27:00;;;;;;;0.65;0.10;;;;;;;22.53;51.22;101873.59;5027029;28;20029;-64
2022/05/19 06:29:26;;;;;;;0.35;0.22;;;;;;;22.59;53.47;101878.34;5032796;28;20030;-63
2022/05/19 06:31:51;;;;;;;0.22;0.00;;;;;;;22.54;50.64;101874.44;5027762;28;20064;-63
2022/05/19 06:34:17;;;;;;;0.10;0.10;;;;;;;22.48;51.71;101871.34;5013765;28;20022;-65
2022/05/19 06:36:42;;;;;;;0.10;0.10;;;;;;;22.68;51.63;101871.00;5006000;28;20026;-63
2022/05/19 06:39:08;;;;;;;0.10;0.10;;;;;;;22.57;51.46;101865.88;5012034;28;20534;-63
2022/05/19 06:44:17;;;;;;;0.70;0.30;;;;;;;22.52;51.77;101867.25;5016884;28;20057;-63
2022/05/19 06:46:46;;;;;;;0.20;0.00;;;;;;;22.65;51.47;101865.84;5016379;28;20082;-64
2022/05/19 06:49:12;;;;;;;0.70;0.10;;;;;;;22.62;52.59;101871.66;5008521;28;20076;-62
2022/05/19 06:51:37;;;;;;;0.40;0.10;;;;;;;22.42;51.54;101861.09;5012757;28;20033;-64
2022/05/19 06:54:03;;;;;;;0.50;0.10;;;;;;;22.40;51.65;101868.63;5015169;28;20030;-63
2022/05/19 06:56:29;;;;;;;0.10;0.10;;;;;;;22.37;51.74;101866.25;5016765;28;20025;-64
2022/05/19 06:58:54;;;;;;;0.10;0.00;;;;;;;22.52;52.08;101867.25;5013242;28;20021;-63
2022/05/19 07:01:20;;;;;;;1.63;0.25;;;;;;;22.66;50.88;101829.16;5019498;28;20062;-63
2022/05/19 07:03:45;;;;;;;0.52;0.10;;;;;;;22.46;51.05;101831.44;5013223;28;20037;-65
2022/05/19 07:06:11;;;;;;;0.20;0.20;;;;;;;22.55;50.19;101826.81;5012220;28;20064;-64
2022/05/19 07:08:38;;;;;;;0.17;0.10;;;;;;;22.59;50.66;101817.22;5014259;28;20441;-61
2022/05/19 07:11:05;;;;;;;0.73;0.10;;;;;;;22.60;50.57;101825.25;5018060;28;20501;-62
2022/05/19 07:13:31;;;;;;;0.20;0.20;;;;;;;22.53;50.16;101824.25;5015351;28;20069;-62
2022/05/19 07:15:56;;;;;;;0.30;0.13;;;;;;;22.50;49.40;101825.44;5025587;28;20034;-62
2022/05/19 07:18:22;;;;;;;0.20;0.20;;;;;;;22.40;49.96;101813.84;5019136;28;20117;-62
2022/05/19 07:20:48;;;;;;;0.20;0.20;;;;;;;22.33;49.92;101807.31;5004433;28;20037;-62
2022/05/19 07:23:24;;;;;;;0.20;0.13;;;;;;;22.39;49.97;101801.16;5009605;28;20021;-62
2022/05/19 07:25:50;;;;;;;0.20;0.20;;;;;;;22.08;49.87;101797.47;5019062;28;20059;-62
2022/05/19 07:28:18;;;;;;;0.35;0.28;;;;;;;22.23;49.71;101809.41;5021223;28;20052;-62
2022/05/19 07:30:47;;;;;;;0.13;0.10;;;;;;;22.25;51.14;101799.16;5026649;28;20021;-62
2022/05/19 07:33:15;;;;;;;0.50;0.20;;;;;;;22.17;49.58;101791.81;5023745;28;20030;-62
2022/05/19 07:35:41;;;;;;;0.20;0.20;;;;;;;22.28;51.16;101801.53;5014277;28;20025;-62
2022/05/19 07:38:06;;;;;;;0.30;0.20;;;;;;;22.32;49.30;101805.63;5005081;28;20033;-62
2022/05/19 07:40:32;;;;;;;0.80;0.35;;;;;;;22.28;50.12;101809.75;5012786;28;20034;-62
2022/05/19 07:43:35;;;;;;;0.38;0.30;;;;;;;22.35;50.61;101808.03;5010237;28;20079;-62
2022/05/19 07:45:43;;;;;;;0.20;0.15;;;;;;;22.48;51.26;101822.03;5013813;28;20483;-62
2022/05/19 07:48:09;;;;;;;0.40;0.20;;;;;;;22.41;50.36;101823.75;5028751;28;20033;-62
2022/05/19 07:50:34;;;;;;;0.40;0.20;;;;;;;22.43;50.58;101816.22;5001449;28;20037;-61
2022/05/19 07:53:00;;;;;;;0.30;0.30;;;;;;;22.32;50.88;101811.09;5015490;28;20026;-62
2022/05/19 07:55:25;;;;;;;0.30;0.15;;;;;;;22.41;51.18;101811.94;5013376;28;20030;-62
2022/05/19 07:57:51;;;;;;;0.22;0.13;;;;;;;22.33;51.28;101821.03;5016426;28;20034;-62
2022/05/19 08:00:17;;;;;;;0.40;0.30;;;;;;;22.52;51.47;101811.59;5007139;28;20025;-62
2022/05/19 08:02:42;;;;;;;0.30;0.22;;;;;;;22.46;51.56;101821.34;5014433;28;20044;-62
2022/05/19 08:05:08;;;;;;;0.10;0.10;;;;;;;22.41;51.67;101810.06;5016068;28;20388;-62
2022/05/19 08:07:33;;;;;;;0.10;0.10;;;;;;;22.40;50.39;101786.44;5010199;28;20065;-62
2022/05/19 08:15:35;;;;;;;0.13;0.13;;;;;;;22.36;49.99;101789.72;5009815;28;20036;-62
2022/05/19 08:18:07;;;;;;;1.13;0.20;;;;;;;22.48;51.32;101797.38;5012866;28;20026;-62
2022/05/19 08:20:33;;;;;;;0.10;0.10;;;;;;;22.34;50.82;101800.84;5015877;28;20040;-62
2022/05/19 08:22:58;;;;;;;1.08;0.20;;;;;;;22.33;51.40;101795.50;5017900;28;20064;-62
2022/05/19 08:25:26;;;;;;;0.75;0.43;;;;;;;22.46;51.04;101796.69;5013654;28;20709;-63
2022/05/19 08:27:52;;;;;;;0.38;0.20;;;;;;;22.34;50.05;101791.75;5005969;28;20504;-62
2022/05/19 08:30:17;;;;;;;1.55;0.20;;;;;;;22.07;50.74;101791.13;5007557;28;20033;-62
2022/05/19 08:32:43;;;;;;;1.88;0.30;;;;;;;21.80;50.07;101795.03;5012957;28;20689;-62
2022/05/19 08:35:08;;;;;;;0.40;0.10;;;;;;;21.45;55.05;101819.97;5003983;28;20545;-61
2022/05/19 08:37:34;;;;;;;0.82;0.40;;;;;;;21.01;52.73;101815.59;5006094;28;20654;-61
2022/05/19 08:39:59;;;;;;;1.08;0.60;;;;;;;20.76;53.11;101804.72;5023811;28;20466;-60
2022/05/19 08:42:27;;;;;;;2.40;0.80;;;;;;;20.64;54.11;101812.31;4992772;28;20105;-60
2022/05/19 08:44:58;;;;;;;2.17;0.70;;;;;;;20.48;55.22;101826.75;5007810;28;20022;-62
2022/05/19 08:47:33;;;;;;;1.70;0.40;;;;;;;20.38;55.17;101817.81;5003313;28;20022;-61
2022/05/19 08:50:05;;;;;;;0.95;0.50;;;;;;;20.32;55.60;101807.50;5013328;28;20030;-61
2022/05/19 08:52:43;;;;;;;1.40;0.25;;;;;;;20.29;55.38;101807.84;5008648;28;20054;-61
2022/05/19 08:55:15;;;;;;;0.77;0.32;;;;;;;20.20;55.40;101793.28;5004554;28;20111;-61
2022/05/19 08:57:56;;;;;;;3.65;0.50;;;;;;;20.59;55.21;101790.97;5020245;28;20112;-63
2022/05/19 09:00:35;;;;;;;0.82;0.30;;;;;;;20.97;54.00;101797.78;5017312;28;20088;-62
2022/05/19 09:03:24;;;;;;;0.35;0.13;;;;;;;21.16;54.49;101798.50;4997605;28;20027;-61
2022/05/19 09:05:52;;;;;;;3.67;0.55;;;;;;;21.29;54.27;101797.03;5008783;28;20017;-65
2022/05/19 09:08:36;;;;;;;2.00;0.52;;;;;;;21.43;55.09;101797.41;5011479;28;20129;-66
2022/05/19 09:11:07;;;;;;;0.50;0.27;;;;;;;21.64;54.58;101800.50;5023641;28;20472;-63
2022/05/19 09:13:51;;;;;;;1.50;0.50;;;;;;;21.68;55.18;101798.31;5011822;28;20266;-65
2022/05/19 09:16:22;;;;;;;1.25;0.60;;;;;;;21.73;54.93;101798.66;5013000;28;20054;-64
2022/05/19 09:18:56;;;;;;;0.50;0.28;;;;;;;21.83;54.95;101791.94;5009672;28;20540;-64
2022/05/19 09:21:21;;;;;;;0.60;0.47;;;;;;;21.88;56.36;101797.78;5025247;28;20065;-64
2022/05/19 09:23:46;;;;;;;0.55;0.40;;;;;;;21.89;54.61;101798.66;5023693;28;20033;-66
2022/05/19 09:26:46;;;;;;;0.88;0.38;;;;;;;21.91;55.77;101808.38;5012766;28;20493;-66
2022/05/19 09:29:18;;;;;;;1.15;0.40;;;;;;;22.01;56.64;101801.91;5013508;28;20026;-65
2022/05/19 09:31:51;;;;;;;1.73;0.50;;;;;;;22.04;54.96;101796.06;5006605;28;20025;-66
2022/05/19 09:34:17;;;;;;;0.93;0.50;;;;;;;22.05;56.28;101804.13;5020600;28;20025;-66
2022/05/19 09:37:01;;;;;;;0.77;0.40;;;;;;;22.05;56.33;101814.25;5003930;28;20042;-66
2022/05/19 09:39:33;;;;;;;1.35;0.50;;;;;;;22.07;55.32;101812.19;5011889;28;20030;-66
2022/05/19 09:42:05;;;;;;;0.73;0.30;;;;;;;22.15;56.04;101814.91;5029394;28;20041;-66
2022/05/19 09:44:34;;;;;;;1.90;0.57;;;;;;;22.11;56.59;101814.41;5018207;28;20033;-66
2022/05/19 09:47:14;;;;;;;1.05;0.30;;;;;;;22.17;55.54;101810.09;5019119;28;20034;-68
2022/05/19 09:49:44;;;;;;;0.75;0.30;;;;;;;22.19;57.39;101806.19;5006697;28;20030;-65
2022/05/19 09:52:18;;;;;;;1.63;0.30;;;;;;;22.22;56.46;101810.47;5013483;28;20036;-65
2022/05/19 09:54:51;;;;;;;0.60;0.38;;;;;;;22.23;57.64;101806.69;5018775;28;20498;-65
2022/05/19 09:57:24;;;;;;;0.93;0.32;;;;;;;22.26;56.88;101803.59;5022288;28;20527;-65
2022/05/19 09:59:52;;;;;;;1.50;0.40;;;;;;;22.26;56.83;101800.84;5026403;28;20388;-65
2022/05/19 10:02:24;;;;;;;0.52;0.32;;;;;;;22.31;58.02;101797.56;5017341;28;20369;-63
2022/05/19 10:05:00;;;;;;;1.13;0.30;;;;;;;22.31;56.64;101789.38;5028407;28;20485;-70
2022/05/19 10:07:47;;;;;;;0.30;0.30;;;;;;;22.26;58.28;101781.69;5015732;28;20081;-72
2022/05/19 10:10:29;;;;;;;4.70;0.60;;;;;;;22.27;57.21;101777.91;5016522;28;20059;-74
2022/05/19 10:13:12;;;;;;;1.80;0.73;;;;;;;22.36;57.37;101778.75;5034811;28;20485;-71
2022/05/19 10:15:52;;;;;;;1.70;0.40;;;;;;;22.33;59.22;101774.47;5022935;28;20492;-71
2022/05/19 10:18:43;;;;;;;2.40;0.65;;;;;;;22.28;58.77;101790.56;5026469;28;20021;-70
2022/05/19 10:21:08;;;;;;;2.10;0.30;;;;;;;22.35;60.49;101788.00;5035423;28;20042;-71
2022/05/19 10:23:48;;;;;;;1.23;0.40;;;;;;;22.31;59.42;101771.03;5035708;28;20032;-71
2022/05/19 10:26:39;;;;;;;0.88;0.30;;;;;;;22.25;59.89;101759.94;5035585;28;20265;-71
2022/05/19 10:32:43;;;;;;;1.00;0.38;;;;;;;22.08;57.32;101748.16;5040562;28;20097;-72
2022/05/19 10:35:33;;;;;;;0.98;0.50;;;;;;;21.98;57.59;101747.47;5017884;28;20464;-71
2022/05/19 10:38:23;;;;;;;0.65;0.28;;;;;;;21.97;56.34;101756.69;5014321;28;20034;-71
2022/05/19 10:41:06;;;;;;;0.65;0.10;;;;;;;21.87;58.40;101752.28;5015656;28;20025;-71
2022/05/19 10:43:37;;;;;;;0.98;0.20;;;;;;;21.90;56.71;101751.94;5015678;28;20026;-71
2022/05/19 10:46:06;;;;;;;0.50;0.20;;;;;;;21.85;57.08;101748.00;5015509;28;20037;-71
2022/05/19 10:49:03;;;;;;;0.65;0.20;;;;;;;21.87;56.65;101749.53;5019069;28;20025;-73
2022/05/19 10:52:00;;;;;;;0.73;0.22;;;;;;;21.88;56.59;101737.56;5015506;28;20057;-71
2022/05/19 10:54:41;;;;;;;1.90;0.40;;;;;;;21.87;56.03;101740.47;5013751;28;20489;-71
2022/05/19 10:57:45;;;;;;;0.50;0.20;;;;;;;21.86;56.76;101739.63;5039081;28;20014;-71
2022/05/19 11:00:15;;;;;;;0.88;0.30;;;;;;;21.86;56.53;101731.41;5020562;28;20034;-71
2022/05/19 11:03:08;;;;;;;1.08;0.45;;;;;;;21.89;58.02;101732.94;5015613;28;20354;-71
2022/05/19 11:06:12;;;;;;;0.38;0.20;;;;;;;21.85;57.34;101726.97;5017037;28;20025;-71
2022/05/19 11:09:07;;;;;;;0.35;0.30;;;;;;;21.81;56.58;101709.16;5010329;28;20149;-71
2022/05/19 11:11:51;;;;;;;1.33;0.40;;;;;;;21.83;56.60;101712.56;5005865;28;20041;-71
2022/05/19 11:14:51;;;;;;;1.45;0.30;;;;;;;21.80;55.02;101723.88;5029078;28;20026;-71
2022/05/19 11:17:26;;;;;;;2.58;0.20;;;;;;;21.78;56.12;101720.44;5018205;28;20056;-72
2022/05/19 11:19:55;;;;;;;;;;;;;;;21.78;55.93;101709.50;5010785;28;20037;-73
2022/05/19 11:22:26;;;;;;;1.33;0.20;;;;;;;21.78;55.41;101705.91;5018399;28;19929;-72
2022/05/19 11:28:10;;;;;;;0.57;0.20;;;;;;;21.84;54.76;101697.03;5018616;28;20084;-72
2022/05/19 11:30:46;;;;;;;0.40;0.20;;;;;;;21.81;56.84;101698.22;5019432;28;20017;-71
2022/05/19 11:33:18;;;;;;;0.82;0.20;;;;;;;21.80;55.53;101696.50;5016723;28;20022;-71
2022/05/19 11:35:56;;;;;;;0.10;0.10;;;;;;;21.80;54.59;101706.59;5020362;28;20068;-71
2022/05/19 11:38:45;;;;;;;0.95;0.50;;;;;;;21.76;56.01;101711.56;5031305;28;20021;-71
2022/05/19 11:41:20;;;;;;;0.68;0.20;;;;;;;21.82;55.08;101705.38;5016830;28;20026;-73
2022/05/19 11:44:10;;;;;;;1.75;0.45;;;;;;;21.80;55.16;101701.97;5011658;28;20036;-71
2022/05/19 11:47:02;;;;;;;0.52;0.30;;;;;;;21.82;57.18;101697.19;5016740;28;20041;-72
2022/05/19 11:55:46;;;;;;;0.30;0.20;;;;;;;21.81;56.16;101698.22;5050036;28;20032;-72
2022/05/19 11:58:28;;;;;;;1.40;0.35;;;;;;;21.79;56.37;101705.75;5051122;28;20083;-72
2022/05/19 12:01:22;;;;;;;0.30;0.20;;;;;;;21.80;56.23;101701.97;5058337;28;20039;-72
2022/05/19 12:04:06;;;;;;;0.85;0.43;;;;;;;21.89;54.42;101692.72;5034316;28;20409;-71